createdAt,value
2022-12-08T00:00:40.629Z,24.40
2022-12-08T00:06:05.347Z,25.73
2022-12-08T00:11:12.948Z,22.75
2022-12-08T00:16:14.871Z,26.38
2022-12-08T00:21:16.718Z,27.50
2022-12-08T00:26:18.482Z,29.27
2022-12-08T00:31:20.353Z,33.28
2022-12-08T00:36:22.103Z,40.67
2022-12-08T00:41:44.014Z,36.90
2022-12-08T00:46:46.504Z,39.58
2022-12-08T00:51:48.788Z,40.42
2022-12-08T00:56:50.755Z,34.30
2022-12-08T01:01:52.551Z,34.88
2022-12-08T01:06:54.323Z,34.40
2022-12-08T01:11:56.426Z,37.00
2022-12-08T01:16:58.222Z,39.45
2022-12-08T01:22:00.259Z,36.13
2022-12-08T01:27:02.044Z,36.17
2022-12-08T01:32:03.913Z,41.70
2022-12-08T01:37:05.666Z,36.05
2022-12-08T01:42:22.103Z,34.58
2022-12-08T01:47:29.636Z,31.00
2022-12-08T01:52:41.552Z,36.13
2022-12-08T01:57:56.394Z,32.03
2022-12-08T02:03:05.114Z,41.85
2022-12-08T02:08:09.669Z,33.03
2022-12-08T02:13:14.952Z,43.47
2022-12-08T02:19:22.373Z,32.58
2022-12-08T02:29:52.799Z,32.90
2022-12-08T02:35:18.513Z,43.70
2022-12-08T02:40:32.660Z,41.88
2022-12-08T02:45:41.719Z,47.33
2022-12-08T02:50:43.544Z,47.42
2022-12-08T02:56:03.239Z,49.80
2022-12-08T03:01:29.239Z,61.50
2022-12-08T03:06:42.789Z,51.28
2022-12-08T03:12:17.960Z,42.85
2022-12-08T03:17:23.543Z,45.45
2022-12-08T03:22:28.563Z,42.85
2022-12-08T03:27:31.617Z,49.05
2022-12-08T03:32:57.727Z,38.65
2022-12-08T03:38:06.122Z,41.58
2022-12-08T03:43:08.284Z,41.90
2022-12-08T03:48:10.041Z,42.97
2022-12-08T03:53:11.810Z,42.65
2022-12-08T03:58:13.553Z,39.88
2022-12-08T04:03:15.602Z,45.33
2022-12-08T04:08:17.464Z,36.95
2022-12-08T04:13:20.112Z,44.33
2022-12-08T04:18:23.147Z,40.75
2022-12-08T04:23:25.371Z,38.80
2022-12-08T04:28:29.433Z,42.70
2022-12-08T04:33:31.365Z,40.53
2022-12-08T04:38:33.939Z,52.28
2022-12-08T04:43:37.005Z,41.08
2022-12-08T04:48:40.601Z,36.90
2022-12-08T04:53:46.495Z,35.78
2022-12-08T04:58:48.815Z,31.67
2022-12-08T05:03:50.639Z,30.23
2022-12-08T05:08:52.410Z,33.42
2022-12-08T05:13:54.420Z,29.25
2022-12-08T05:18:56.163Z,29.08
2022-12-08T05:23:57.966Z,30.40
2022-12-08T05:28:59.786Z,33.58
2022-12-08T05:34:03.304Z,37.70
2022-12-08T05:39:05.539Z,35.42
2022-12-08T05:44:07.999Z,36.95
2022-12-08T05:49:09.845Z,37.45
2022-12-08T05:54:11.692Z,36.85
2022-12-08T05:59:15.836Z,42.90
2022-12-08T06:04:18.391Z,42.65
2022-12-08T06:09:20.143Z,43.05
2022-12-08T06:14:21.988Z,40.15
2022-12-08T06:19:23.802Z,40.72
2022-12-08T06:24:25.667Z,37.92
2022-12-08T06:29:27.601Z,41.30
2022-12-08T06:34:29.332Z,29.60
2022-12-08T06:39:31.088Z,36.75
2022-12-08T06:44:32.846Z,26.75
2022-12-08T06:49:34.595Z,27.02
2022-12-08T06:54:36.379Z,33.33
2022-12-08T06:59:39.929Z,37.33
2022-12-08T07:04:41.652Z,25.42
2022-12-08T07:09:43.431Z,29.67
2022-12-08T07:14:45.246Z,32.30
2022-12-08T07:19:47.280Z,30.52
2022-12-08T07:24:49.051Z,28.08
2022-12-08T07:29:50.829Z,33.15
2022-12-08T07:34:52.722Z,28.90
2022-12-08T07:39:54.502Z,27.70
2022-12-08T07:44:56.290Z,35.97
2022-12-08T07:49:58.103Z,35.50
2022-12-08T07:54:59.874Z,28.02
2022-12-08T08:00:02.017Z,28.98
2022-12-08T08:05:04.152Z,29.08
2022-12-08T08:10:07.138Z,27.10
2022-12-08T08:15:10.718Z,28.60
2022-12-08T08:20:13.184Z,23.27
2022-12-08T08:25:15.825Z,32.35
2022-12-08T08:30:20.770Z,33.22
2022-12-08T08:35:22.864Z,29.48
2022-12-08T08:40:24.654Z,26.75
2022-12-08T08:45:26.514Z,29.88
2022-12-08T08:50:31.666Z,28.38
2022-12-08T08:55:40.142Z,27.63
2022-12-08T09:00:42.174Z,30.98
2022-12-08T09:05:44.039Z,23.65
2022-12-08T09:10:46.012Z,26.60
2022-12-08T09:15:47.938Z,27.95
2022-12-08T09:20:49.706Z,25.20
2022-12-08T09:25:51.452Z,31.52
2022-12-08T09:30:53.253Z,35.63
2022-12-08T09:35:55.168Z,35.88
2022-12-08T09:40:57.145Z,26.70
2022-12-08T09:46:00.902Z,35.38
2022-12-08T09:51:04.183Z,33.88
2022-12-08T09:56:16.288Z,30.45
2022-12-08T10:01:19.957Z,35.13
2022-12-08T10:06:37.264Z,28.83
2022-12-08T10:11:49.525Z,30.73
2022-12-08T10:16:57.543Z,37.78
2022-12-08T10:21:59.556Z,35.58
2022-12-08T10:27:02.412Z,29.52
2022-12-08T10:32:16.736Z,36.20
2022-12-08T10:37:18.861Z,36.38
2022-12-08T10:42:22.438Z,33.55
2022-12-08T10:47:26.875Z,30.27
2022-12-08T10:52:29.066Z,28.52
2022-12-08T10:57:30.814Z,41.88
2022-12-08T11:02:32.764Z,38.80
2022-12-08T11:07:34.778Z,33.28
2022-12-08T11:12:37.569Z,19.33
2022-12-08T11:17:39.574Z,20.35
2022-12-08T11:22:43.760Z,41.35
2022-12-08T11:27:48.320Z,19.10
2022-12-08T11:33:20.917Z,20.40
2022-12-08T11:38:26.564Z,18.98
2022-12-08T11:43:34.878Z,19.00
2022-12-08T11:48:49.745Z,19.88
2022-12-08T11:53:59.242Z,21.15
2022-12-08T11:59:08.333Z,24.40
2022-12-08T12:04:30.398Z,20.17
2022-12-08T12:09:44.499Z,17.85
2022-12-08T12:15:02.199Z,17.40
2022-12-08T12:20:12.281Z,15.10
2022-12-08T12:25:24.006Z,19.93
2022-12-08T12:30:28.120Z,22.60
2022-12-08T12:35:37.423Z,13.05
2022-12-08T12:40:41.967Z,14.98
2022-12-08T12:45:45.759Z,12.38
2022-12-08T12:50:49.447Z,19.30
2022-12-08T12:55:57.557Z,16.73
2022-12-08T13:01:11.975Z,17.10
2022-12-08T13:06:15.574Z,11.07
2022-12-08T13:11:17.828Z,11.05
2022-12-08T13:16:26.731Z,13.88
2022-12-08T13:21:39.556Z,17.77
2022-12-08T13:26:49.688Z,18.55
2022-12-08T13:31:54.414Z,17.27
2022-12-08T13:37:11.393Z,18.25
2022-12-08T13:42:13.304Z,17.30
2022-12-08T13:47:33.831Z,17.27
2022-12-08T13:58:24.950Z,16.83
2022-12-08T14:03:26.913Z,17.58
2022-12-08T14:13:56.173Z,24.25
2022-12-08T14:19:15.472Z,17.88
2022-12-08T14:24:17.248Z,8.95
2022-12-08T14:29:39.546Z,2.15
2022-12-08T14:34:42.612Z,3.67
2022-12-08T14:39:44.441Z,4.72
2022-12-08T14:44:46.276Z,3.90
2022-12-08T14:49:48.230Z,3.22
2022-12-08T14:54:51.265Z,7.07
2022-12-08T14:59:53.189Z,6.47
2022-12-08T15:05:02.796Z,5.28
2022-12-08T15:10:10.200Z,23.13
2022-12-08T15:15:17.143Z,7.55
2022-12-08T15:20:42.685Z,5.43
2022-12-08T15:25:44.543Z,7.57
2022-12-08T15:30:46.672Z,10.45
2022-12-08T15:35:50.648Z,3.72
2022-12-08T15:40:53.632Z,3.45
2022-12-08T15:46:00.422Z,2.90
2022-12-08T15:51:02.302Z,14.18
2022-12-08T16:01:29.439Z,6.53
2022-12-08T16:07:19.175Z,8.68
2022-12-08T16:12:11.940Z,9.60
2022-12-08T16:28:01.184Z,15.82
2022-12-08T16:33:03.638Z,9.65
2022-12-08T16:38:05.414Z,10.57
2022-12-08T16:43:08.812Z,12.35
2022-12-08T16:48:14.859Z,13.00
2022-12-08T16:53:16.743Z,10.88
2022-12-08T16:58:18.655Z,11.60
2022-12-08T17:03:20.427Z,20.70
2022-12-08T17:08:22.290Z,32.60
2022-12-08T17:13:24.318Z,22.48
2022-12-08T17:18:26.123Z,23.15
2022-12-08T17:23:28.126Z,27.33
2022-12-08T17:28:58.443Z,23.05
2022-12-08T17:33:52.504Z,23.25
2022-12-08T17:38:55.506Z,21.95
2022-12-08T17:43:57.480Z,18.63
2022-12-08T17:48:59.217Z,27.65
2022-12-08T17:54:01.174Z,26.23
2022-12-08T17:59:03.850Z,23.38
2022-12-08T18:04:07.225Z,26.27
2022-12-08T18:09:09.306Z,26.75
2022-12-08T18:14:12.398Z,26.88
2022-12-08T18:19:15.739Z,25.88
2022-12-08T18:24:23.653Z,24.40
2022-12-08T18:29:25.969Z,27.45
2022-12-08T18:34:29.277Z,26.95
2022-12-08T18:39:33.201Z,24.98
2022-12-08T18:44:34.994Z,26.40
2022-12-08T18:49:36.834Z,26.48
2022-12-08T19:00:02.679Z,36.67
2022-12-08T19:05:06.511Z,28.63
2022-12-08T19:10:12.215Z,37.38
2022-12-08T19:15:14.263Z,34.60
2022-12-08T19:20:16.226Z,33.90
2022-12-08T19:25:18.699Z,30.95
2022-12-08T19:30:20.717Z,34.40
2022-12-08T19:35:22.670Z,30.60
2022-12-08T19:40:42.968Z,27.10
2022-12-08T19:45:47.199Z,25.50
2022-12-08T19:50:49.032Z,28.98
2022-12-08T19:55:52.748Z,30.30
2022-12-08T20:00:55.313Z,27.95
2022-12-08T20:05:57.454Z,35.45
2022-12-08T20:10:59.517Z,28.95
2022-12-08T20:16:01.369Z,39.47
2022-12-08T20:21:03.682Z,32.20
2022-12-08T20:26:07.242Z,39.35
2022-12-08T20:31:26.286Z,29.75
2022-12-08T20:36:28.271Z,31.42
2022-12-08T20:41:33.677Z,30.77
2022-12-08T20:46:41.029Z,30.48
2022-12-08T20:51:44.606Z,31.00
2022-12-08T20:56:48.555Z,29.70
2022-12-08T21:01:52.947Z,33.97
2022-12-08T21:06:57.914Z,33.38
2022-12-08T21:12:00.154Z,41.78
2022-12-08T21:17:02.469Z,32.47
2022-12-08T21:22:04.498Z,32.80
2022-12-08T21:27:06.392Z,28.55
2022-12-08T21:32:08.630Z,30.75
2022-12-08T21:37:10.886Z,30.48
2022-12-08T21:42:34.255Z,28.95
2022-12-08T21:47:36.790Z,30.10
2022-12-08T21:52:43.985Z,35.00
2022-12-08T21:57:46.001Z,31.05
2022-12-08T22:02:48.181Z,37.75
2022-12-08T22:07:50.489Z,29.30
2022-12-08T22:12:52.662Z,27.15
2022-12-08T22:17:54.870Z,34.33
2022-12-08T22:22:56.749Z,42.90
2022-12-08T22:27:58.565Z,38.20
2022-12-08T22:33:00.480Z,36.80
2022-12-08T22:38:02.234Z,40.83
2022-12-08T22:43:03.983Z,28.60
2022-12-08T22:48:05.914Z,37.40
2022-12-08T22:53:07.928Z,37.35
2022-12-08T22:58:13.188Z,32.85
2022-12-08T23:03:15.125Z,34.00
2022-12-08T23:08:18.241Z,32.28
2022-12-08T23:13:21.110Z,31.10
2022-12-08T23:18:23.152Z,47.03
2022-12-08T23:23:24.981Z,32.30
2022-12-08T23:28:27.127Z,38.58
2022-12-08T23:33:31.889Z,36.28
2022-12-08T23:38:33.996Z,34.53
2022-12-08T23:43:36.169Z,36.58
2022-12-08T23:48:38.083Z,35.83
2022-12-08T23:53:40.293Z,34.60
2022-12-08T23:58:43.274Z,29.90
